Ko Samui, Thailand

9:04 PM ICT on September 21, 2014 (GMT +0700)
Samui | Change Station
CLOSE
Current Station
Airport
Location: Samui,
Elevation: 66 ft
Nearby Weather Stations

Elev 66 ft 9.55 °N, 100.06 °E | Updated 1 hour ago

Mostly Cloudy
Mostly Cloudy
84 °F
Feels Like 92 °F
N
9
Wind Variable Wind from South

Today
High -- | Low -- °F
--% Chance of Precip.
Yesterday
High -- | Low -- °F
Precip. -- in
6:09 AM 6:16 PM
Waning Crescent, 7% visible
Pressure 29.86 in
Visibility 6.2 miles
Clouds Few 2000 ft
Mostly Cloudy 30000 ft
Heat Index 92 °F
Dew Point 75 °F
Humidity 74%
Rainfall 0.00 in
Snow Depth Not available.
UV 0 out of 12
Pollen Not available.
Air Quality Not available.
Flu Activity Not available.
METAR VTSM 211300Z 18008KT 9999 FEW020 BKN300 29/24 Q1011 A2987

More Conditions Fewer Conditions

Pressure 29.86 in
Visibility 6.2 miles
Clouds Few 2000 ft
Mostly Cloudy 30000 ft
Heat Index 92 °F
Dew Point 75 °F
Humidity 74%
Rainfall 0.00 in
Snow Depth Not available.
UV 0 out of 12
Pollen Not available.
Air Quality Not available.
Flu Activity Not available.
METAR VTSM 211300Z 18008KT 9999 FEW020 BKN300 29/24 Q1011 A2987

More Conditions Fewer Conditions

10-Day Weather Forecast

Almanac

Astronomy

Sep. 21, 2014 Rise Set
Actual Time 6:09 AM ICT 6:16 PM ICT
Civil Twilight 5:48 AM ICT 6:37 PM ICT
Nautical Twilight 5:23 AM ICT 7:02 PM ICT
Astronomical Twilight 4:59 AM ICT 7:26 PM ICT
Moon 3:40 AM ICT 4:14 PM ICT
Length of Visible Light 12h 49m
Length of Day
12h 07m
Tomorrow will be 0m 30s shorter.
Waning Crescent, 7% of the Moon is Illuminated
Today
Waning Crescent
Sep 24
New
Oct 1
First Quarter
Oct 8
Full
Oct 15
Last Quarter

Yesterday's Extremes

Country Highs Country Lows

Community

WunderPhotos

Upload Photos

1,755,147 photos uploaded!

Nearby

Snow Depth

Not available.

Earthquake Activity

City Distance Mag. Time & Date
No recent earthquake activity has been reported nearby.
Minimum magnitude displayed is 2.5.

Coastal Water Temperatures

Place Temperature
No Stations Reporting

Nearby Weather Stations